Time;durP1;ratioP1;P1;durP2;ratioP2;P2;SDS_P1;SDS_P2;PMS_P1;PMS_P2;Temp;Humidity;BMP_temperature;BMP_pressure;BME280_temperature;BME280_humidity;BME280_pressure;Samples;Min_cycle;Max_cycle;Signal;HPM_P1;HPM_P2
2022/02/15 00:00:06;;;;;;;26.97;14.70;;;3.50;99.90;;;;;;5070556;28;20598;-67
2022/02/15 00:02:33;;;;;;;29.93;15.93;;;3.50;99.90;;;;;;5064025;28;20647;-69
2022/02/15 00:05:00;;;;;;;27.63;15.90;;;3.50;99.90;;;;;;5071197;28;20202;-68
2022/02/15 00:07:26;;;;;;;22.87;14.97;;;3.50;99.90;;;;;;5068458;28;20237;-70
2022/02/15 00:09:53;;;;;;;24.37;15.20;;;3.50;99.90;;;;;;5066259;28;20285;-67
2022/02/15 00:12:20;;;;;;;27.90;16.33;;;3.50;99.90;;;;;;5062666;28;20745;-67
2022/02/15 00:14:48;;;;;;;24.60;15.80;;;3.50;99.90;;;;;;5073811;28;20292;-68
2022/02/15 00:17:15;;;;;;;28.80;16.27;;;3.50;99.90;;;;;;5055479;28;20252;-67
2022/02/15 00:19:42;;;;;;;27.20;15.87;;;3.40;99.90;;;;;;5071558;28;20686;-66
2022/02/15 00:22:09;;;;;;;26.27;15.77;;;3.40;99.90;;;;;;5073705;28;20225;-66
2022/02/15 00:24:36;;;;;;;27.70;15.93;;;3.40;99.90;;;;;;5074107;28;20681;-67
2022/02/15 00:27:03;;;;;;;24.90;15.73;;;3.40;99.90;;;;;;5074729;28;20212;-67
2022/02/15 00:29:30;;;;;;;26.63;16.87;;;3.40;99.90;;;;;;5073839;28;20645;-68
2022/02/15 00:31:58;;;;;;;27.33;16.37;;;3.30;99.90;;;;;;5073690;28;20699;-67
2022/02/15 00:34:25;;;;;;;28.40;16.40;;;3.30;99.90;;;;;;5072004;28;20215;-66
2022/02/15 00:36:52;;;;;;;26.30;15.83;;;3.30;99.90;;;;;;5065685;28;20241;-67
2022/02/15 00:39:19;;;;;;;28.73;16.27;;;3.30;99.90;;;;;;5059201;28;20589;-67
2022/02/15 00:41:46;;;;;;;26.93;15.97;;;3.30;99.90;;;;;;5066343;28;20207;-67
2022/02/15 00:44:12;;;;;;;23.80;15.13;;;3.30;99.90;;;;;;5088243;28;20247;-66
2022/02/15 00:46:39;;;;;;;30.33;17.50;;;3.30;99.90;;;;;;5073917;28;20293;-67
2022/02/15 00:49:07;;;;;;;28.63;17.27;;;3.20;99.90;;;;;;5059482;28;20212;-67
2022/02/15 00:51:34;;;;;;;29.03;16.13;;;3.30;99.90;;;;;;5066428;28;20673;-67
2022/02/15 00:54:01;;;;;;;30.83;17.33;;;3.20;99.90;;;;;;5071153;28;20288;-66
2022/02/15 00:56:28;;;;;;;27.63;16.30;;;3.20;99.90;;;;;;5074037;28;20564;-67
2022/02/15 00:58:55;;;;;;;26.53;16.17;;;3.20;99.90;;;;;;5073305;28;20323;-67
2022/02/15 01:01:22;;;;;;;30.17;16.20;;;3.20;99.90;;;;;;5073254;28;20205;-67
2022/02/15 01:03:49;;;;;;;28.70;16.27;;;3.20;99.90;;;;;;5073173;28;20296;-67
2022/02/15 01:06:17;;;;;;;30.77;17.60;;;3.20;99.90;;;;;;5073567;28;20243;-67
2022/02/15 01:08:45;;;;;;;32.50;17.30;;;3.20;99.90;;;;;;5073530;28;20264;-67
2022/02/15 01:11:12;;;;;;;28.57;17.77;;;3.10;99.90;;;;;;5074491;28;20201;-67
2022/02/15 01:13:39;;;;;;;27.37;18.03;;;3.10;99.90;;;;;;5073506;28;20231;-67
2022/02/15 01:16:06;;;;;;;27.50;17.03;;;3.10;99.90;;;;;;5066682;28;20233;-66
2022/02/15 01:18:34;;;;;;;26.00;16.93;;;3.10;99.90;;;;;;5061991;28;20202;-66
2022/02/15 01:21:00;;;;;;;27.17;15.70;;;3.10;99.90;;;;;;5067181;28;20228;-67
2022/02/15 01:23:29;;;;;;;29.97;16.67;;;3.10;99.90;;;;;;5073026;28;20268;-69
2022/02/15 01:25:55;;;;;;;29.07;17.53;;;3.10;99.90;;;;;;5073782;28;20262;-67
2022/02/15 01:28:23;;;;;;;25.10;15.97;;;3.00;99.90;;;;;;5073786;28;20209;-66
2022/02/15 01:30:50;;;;;;;27.60;16.73;;;3.20;99.90;;;;;;5083843;28;20288;-67
2022/02/15 01:33:16;;;;;;;30.20;17.27;;;3.00;99.90;;;;;;5069422;28;20578;-67
2022/02/15 01:35:43;;;;;;;28.97;16.87;;;3.00;99.90;;;;;;5066622;28;20206;-67
2022/02/15 01:38:10;;;;;;;29.97;16.77;;;3.00;99.90;;;;;;5073088;28;20241;-67
2022/02/15 01:40:38;;;;;;;28.97;16.53;;;3.00;99.90;;;;;;5069811;28;20210;-68
2022/02/15 01:43:05;;;;;;;28.33;16.13;;;3.00;99.90;;;;;;5055050;28;20701;-67
2022/02/15 01:45:32;;;;;;;27.97;16.43;;;2.90;99.90;;;;;;5061931;28;20280;-67
2022/02/15 01:47:59;;;;;;;28.60;16.83;;;2.90;99.90;;;;;;5072095;28;20210;-67
2022/02/15 01:50:26;;;;;;;28.90;16.80;;;3.00;99.90;;;;;;5072769;28;20209;-67
2022/02/15 01:52:52;;;;;;;26.07;15.77;;;3.00;99.90;;;;;;5072080;28;20248;-67
2022/02/15 01:55:19;;;;;;;28.33;17.00;;;2.90;99.90;;;;;;5079347;28;20219;-66
2022/02/15 01:57:48;;;;;;;26.53;15.67;;;2.90;99.90;;;;;;5073463;28;20300;-67
2022/02/15 02:00:18;;;;;;;29.30;16.03;;;2.90;99.90;;;;;;5072811;28;20209;-64
2022/02/15 02:02:45;;;;;;;26.07;16.07;;;2.90;99.90;;;;;;5070012;28;20216;-64
2022/02/15 02:07:57;;;;;;;26.90;15.50;;;2.90;99.90;;;;;;5061719;28;20267;-65
2022/02/15 02:10:24;;;;;;;27.17;16.00;;;2.80;99.90;;;;;;5061298;28;20206;-64
2022/02/15 02:12:53;;;;;;;25.73;15.70;;;2.80;99.90;;;;;;5070362;28;20236;-65
2022/02/15 02:15:22;;;;;;;30.97;17.53;;;2.80;99.90;;;;;;5066972;28;20201;-64
2022/02/15 02:17:51;;;;;;;29.13;17.40;;;2.80;99.90;;;;;;5066188;28;20229;-63
2022/02/15 02:20:19;;;;;;;27.10;16.30;;;2.80;99.90;;;;;;5065236;28;20294;-63
2022/02/15 02:22:47;;;;;;;27.90;16.57;;;2.90;99.90;;;;;;5071451;28;20292;-64
2022/02/15 02:25:17;;;;;;;26.03;16.57;;;2.80;99.90;;;;;;5073016;28;20661;-65
2022/02/15 02:27:44;;;;;;;28.90;16.63;;;2.80;99.90;;;;;;5069615;28;20215;-63
2022/02/15 02:30:12;;;;;;;25.87;16.30;;;2.80;99.90;;;;;;5069515;28;20293;-64
2022/02/15 02:32:39;;;;;;;27.00;16.23;;;2.80;99.90;;;;;;5072221;28;20221;-64
2022/02/15 02:35:07;;;;;;;26.43;16.97;;;2.80;99.90;;;;;;5071186;28;20309;-64
2022/02/15 02:37:35;;;;;;;30.70;17.23;;;2.80;99.90;;;;;;5071721;28;20327;-63
2022/02/15 02:40:06;;;;;;;27.03;16.60;;;2.80;99.90;;;;;;5073146;28;20682;-64
2022/02/15 02:42:34;;;;;;;27.57;16.70;;;2.80;99.90;;;;;;5081694;28;20204;-64
2022/02/15 02:45:08;;;;;;;28.33;16.10;;;2.80;99.90;;;;;;5075226;28;20209;-63
2022/02/15 02:47:35;;;;;;;25.30;16.60;;;2.80;99.90;;;;;;5073059;28;20299;-64
2022/02/15 02:50:03;;;;;;;27.90;17.07;;;2.80;99.90;;;;;;5075042;28;20202;-63
2022/02/15 02:52:30;;;;;;;25.90;16.13;;;2.80;99.90;;;;;;5075615;28;20266;-63
2022/02/15 02:54:57;;;;;;;30.37;16.93;;;2.80;99.90;;;;;;5070878;28;20971;-64
2022/02/15 02:57:25;;;;;;;27.27;17.83;;;2.80;99.90;;;;;;5073830;28;20282;-65
2022/02/15 02:59:52;;;;;;;27.27;15.87;;;2.80;99.90;;;;;;5073995;28;20272;-65
2022/02/15 03:02:19;;;;;;;28.13;17.53;;;2.80;99.90;;;;;;5074803;28;20215;-65
2022/02/15 03:04:46;;;;;;;28.40;16.37;;;2.80;99.90;;;;;;5074786;28;20201;-63
2022/02/15 03:07:13;;;;;;;28.53;17.53;;;2.80;99.90;;;;;;5068524;28;20651;-65
2022/02/15 03:09:40;;;;;;;29.93;18.37;;;2.70;99.90;;;;;;5074580;28;20556;-64
2022/02/15 03:12:07;;;;;;;27.43;16.87;;;2.70;99.90;;;;;;5073932;28;20296;-65
2022/02/15 03:14:36;;;;;;;30.57;17.90;;;2.70;99.90;;;;;;5074873;28;20597;-64
2022/02/15 03:17:03;;;;;;;25.60;17.33;;;2.70;99.90;;;;;;5064506;28;20282;-63
2022/02/15 03:19:30;;;;;;;27.63;17.53;;;2.70;99.90;;;;;;5073813;28;20228;-64
2022/02/15 03:21:58;;;;;;;31.27;16.33;;;2.70;99.90;;;;;;5081078;28;20225;-64
2022/02/15 03:24:24;;;;;;;27.43;16.30;;;2.70;99.90;;;;;;5066287;28;20673;-63
2022/02/15 03:26:51;;;;;;;29.67;17.40;;;2.70;99.90;;;;;;5073947;28;20232;-64
2022/02/15 03:29:18;;;;;;;28.93;17.40;;;2.70;99.90;;;;;;5081552;28;20583;-65
2022/02/15 03:31:46;;;;;;;26.90;16.70;;;2.60;99.90;;;;;;5075033;28;20223;-64
2022/02/15 03:34:13;;;;;;;28.80;16.63;;;2.70;99.90;;;;;;5073971;28;20248;-64
2022/02/15 03:36:40;;;;;;;29.93;17.70;;;2.60;99.90;;;;;;5078336;28;20293;-64
2022/02/15 03:39:09;;;;;;;25.80;16.57;;;2.60;99.90;;;;;;5068939;28;20450;-64
2022/02/15 03:44:17;;;;;;;31.10;18.03;;;2.60;99.90;;;;;;5027951;28;20614;-64
2022/02/15 03:46:45;;;;;;;30.83;17.77;;;2.60;99.90;;;;;;5074936;28;20201;-64
2022/02/15 03:49:12;;;;;;;32.17;17.10;;;2.60;99.90;;;;;;5074349;28;20565;-64
2022/02/15 03:51:39;;;;;;;29.57;16.80;;;2.60;99.90;;;;;;5073121;28;20236;-64
2022/02/15 03:54:07;;;;;;;28.10;17.27;;;2.60;99.90;;;;;;5068581;28;20248;-64
2022/02/15 03:56:34;;;;;;;28.03;17.80;;;2.60;99.90;;;;;;5070280;28;20232;-63
2022/02/15 03:59:02;;;;;;;32.77;18.57;;;2.60;99.90;;;;;;5070610;28;20688;-63
2022/02/15 04:01:29;;;;;;;33.63;17.70;;;2.50;99.90;;;;;;5074026;28;20288;-66
2022/02/15 04:03:57;;;;;;;30.93;16.70;;;2.50;99.90;;;;;;5074419;28;20385;-65
2022/02/15 04:06:24;;;;;;;26.23;17.33;;;2.50;99.90;;;;;;5072482;28;20197;-64
2022/02/15 04:08:50;;;;;;;29.77;18.07;;;2.50;99.90;;;;;;5070238;28;20212;-63
2022/02/15 04:11:17;;;;;;;29.23;17.97;;;2.50;99.90;;;;;;5073994;28;20201;-64
2022/02/15 04:13:44;;;;;;;31.60;17.90;;;2.40;99.90;;;;;;5073568;28;20470;-63
2022/02/15 04:16:12;;;;;;;32.00;17.50;;;2.40;99.90;;;;;;5077131;28;20213;-64
2022/02/15 04:18:43;;;;;;;29.87;18.13;;;2.40;99.90;;;;;;5071300;28;20201;-64
2022/02/15 04:21:13;;;;;;;29.63;17.37;;;2.40;99.90;;;;;;5072626;28;20721;-64
2022/02/15 04:23:40;;;;;;;28.70;17.63;;;2.40;99.90;;;;;;5076292;28;20208;-64
2022/02/15 04:26:07;;;;;;;28.40;17.30;;;2.40;99.90;;;;;;5063724;28;20623;-64
2022/02/15 04:28:34;;;;;;;28.00;17.73;;;2.30;99.90;;;;;;5072538;28;20205;-63
2022/02/15 04:31:01;;;;;;;29.80;16.70;;;2.40;99.90;;;;;;5082252;28;20201;-64
2022/02/15 04:33:28;;;;;;;28.70;17.23;;;2.30;99.90;;;;;;5073261;28;20308;-65
2022/02/15 04:35:55;;;;;;;28.87;17.23;;;2.30;99.90;;;;;;5072713;28;20205;-66
2022/02/15 04:38:23;;;;;;;27.90;17.23;;;2.30;99.90;;;;;;5068147;28;20731;-63
2022/02/15 04:40:50;;;;;;;31.10;16.90;;;2.30;99.90;;;;;;5068743;28;20669;-64
2022/02/15 04:43:17;;;;;;;32.80;16.53;;;2.40;99.90;;;;;;5073172;28;20206;-64
2022/02/15 04:45:44;;;;;;;27.33;16.77;;;2.40;99.90;;;;;;5072880;28;20645;-64
2022/02/15 04:48:11;;;;;;;30.37;17.57;;;2.40;99.90;;;;;;5076308;28;20279;-63
2022/02/15 04:50:37;;;;;;;28.23;16.77;;;2.40;99.90;;;;;;5072955;28;20641;-63
2022/02/15 04:53:04;;;;;;;36.27;18.17;;;2.40;99.90;;;;;;5072921;28;20619;-64
2022/02/15 04:55:32;;;;;;;27.83;16.37;;;2.40;99.90;;;;;;5072469;28;20209;-64
2022/02/15 04:57:59;;;;;;;26.43;16.60;;;2.40;99.90;;;;;;5071131;28;20205;-64
2022/02/15 05:00:26;;;;;;;30.93;16.57;;;2.40;99.90;;;;;;5073271;28;20642;-64
2022/02/15 05:02:53;;;;;;;30.90;17.57;;;2.40;99.90;;;;;;5071754;28;20213;-64
2022/02/15 05:05:20;;;;;;;27.27;17.03;;;1.50;99.90;;;;;;5084024;28;20209;-65
2022/02/15 05:07:47;;;;;;;28.83;16.37;;;2.30;99.90;;;;;;5072487;28;20209;-64
2022/02/15 05:10:14;;;;;;;28.70;16.73;;;2.30;99.90;;;;;;5063526;28;20244;-64
2022/02/15 05:12:42;;;;;;;26.97;16.90;;;2.30;99.90;;;;;;5072214;28;20297;-63
2022/02/15 05:15:10;;;;;;;29.73;16.80;;;2.30;99.90;;;;;;5072226;28;20232;-63
2022/02/15 05:17:43;;;;;;;28.20;16.87;;;2.30;99.90;;;;;;5062202;28;20206;-63
2022/02/15 05:20:11;;;;;;;33.37;17.30;;;2.30;99.90;;;;;;5060698;28;20201;-64
2022/02/15 05:22:38;;;;;;;29.60;17.77;;;2.30;99.90;;;;;;5072562;28;20197;-63
2022/02/15 05:25:06;;;;;;;30.27;17.73;;;2.30;99.90;;;;;;5070501;28;20638;-64
2022/02/15 05:27:32;;;;;;;28.33;17.53;;;2.30;99.90;;;;;;5072074;28;20209;-64
2022/02/15 05:30:01;;;;;;;29.77;17.73;;;2.30;99.90;;;;;;5083816;28;20211;-64
2022/02/15 05:32:28;;;;;;;27.70;17.60;;;2.40;99.90;;;;;;5073056;28;20548;-63
2022/02/15 05:34:55;;;;;;;33.30;18.20;;;2.40;99.90;;;;;;5071503;28;20312;-64
2022/02/15 05:37:22;;;;;;;28.37;18.10;;;2.40;99.90;;;;;;5071958;28;20241;-64
2022/02/15 05:39:49;;;;;;;26.40;16.27;;;2.40;99.90;;;;;;5072321;28;20269;-64
2022/02/15 05:42:16;;;;;;;30.53;17.53;;;2.40;99.90;;;;;;5072361;28;20292;-64
2022/02/15 05:44:43;;;;;;;28.93;17.07;;;2.50;99.90;;;;;;5072557;28;20243;-64
2022/02/15 05:47:11;;;;;;;28.33;16.33;;;2.50;99.90;;;;;;5069832;28;20209;-64
2022/02/15 05:52:19;;;;;;;30.53;18.20;;;2.50;99.90;;;;;;5068457;28;20192;-63
2022/02/15 05:54:47;;;;;;;30.00;17.10;;;2.60;99.90;;;;;;5071648;28;20747;-64
2022/02/15 05:57:14;;;;;;;28.47;17.40;;;2.60;99.90;;;;;;5072892;28;20210;-64
2022/02/15 05:59:41;;;;;;;28.43;16.80;;;2.50;99.90;;;;;;5079523;28;20600;-64
2022/02/15 06:02:08;;;;;;;27.23;15.93;;;2.40;99.90;;;;;;5072083;28;20575;-64
2022/02/15 06:04:37;;;;;;;26.53;16.47;;;2.50;99.90;;;;;;5072198;28;20203;-64
2022/02/15 06:07:05;;;;;;;25.83;16.57;;;2.50;99.90;;;;;;5071566;28;20593;-65
2022/02/15 06:09:32;;;;;;;26.33;17.20;;;2.50;99.90;;;;;;5067039;28;20201;-64
2022/02/15 06:11:59;;;;;;;29.10;17.37;;;2.50;99.90;;;;;;5071922;28;20694;-64
2022/02/15 06:14:26;;;;;;;26.87;17.00;;;2.50;99.90;;;;;;5073826;28;20581;-65
2022/02/15 06:16:52;;;;;;;29.83;17.23;;;2.50;99.90;;;;;;5075116;28;20258;-64
2022/02/15 06:19:19;;;;;;;27.03;17.03;;;2.50;99.90;;;;;;5063960;28;20245;-64
2022/02/15 06:21:48;;;;;;;28.90;18.13;;;2.60;99.90;;;;;;5077784;28;20445;-66
2022/02/15 06:24:17;;;;;;;26.40;15.97;;;2.60;99.90;;;;;;5064940;28;20210;-66
2022/02/15 06:26:44;;;;;;;27.37;16.37;;;2.60;99.90;;;;;;5065254;28;20210;-64
2022/02/15 06:29:11;;;;;;;27.67;16.57;;;2.60;99.90;;;;;;5079842;28;20288;-64
2022/02/15 06:31:38;;;;;;;27.00;16.17;;;2.60;99.90;;;;;;5074549;28;20220;-64
2022/02/15 06:34:06;;;;;;;26.60;15.17;;;2.70;99.90;;;;;;5075520;28;20225;-64
2022/02/15 06:36:33;;;;;;;25.67;15.10;;;2.80;99.90;;;;;;5074608;28;20221;-64
2022/02/15 06:39:01;;;;;;;29.57;16.93;;;2.80;99.90;;;;;;5074326;28;20237;-66
2022/02/15 06:41:28;;;;;;;26.40;16.73;;;2.80;99.90;;;;;;5066960;28;20211;-64
2022/02/15 06:43:55;;;;;;;29.07;16.50;;;2.80;99.90;;;;;;5065269;28;20219;-64
2022/02/15 06:46:22;;;;;;;28.13;16.50;;;2.90;99.90;;;;;;5069641;28;20209;-64
2022/02/15 06:48:49;;;;;;;30.20;16.00;;;2.90;99.90;;;;;;5075974;28;20231;-65
2022/02/15 06:51:16;;;;;;;25.87;15.43;;;2.90;99.90;;;;;;5075481;28;20246;-64
2022/02/15 06:53:42;;;;;;;30.23;17.77;;;3.00;99.90;;;;;;5072280;28;20821;-70
2022/02/15 06:56:11;;;;;;;28.87;17.17;;;3.00;99.90;;;;;;5071930;28;20638;-65
2022/02/15 06:58:38;;;;;;;28.50;16.23;;;3.20;99.90;;;;;;5066663;28;20237;-65
2022/02/15 07:01:05;;;;;;;28.50;16.50;;;3.30;99.90;;;;;;5066346;28;20557;-66
2022/02/15 07:03:32;;;;;;;27.13;16.30;;;3.30;99.90;;;;;;5064475;28;20325;-71
2022/02/15 07:05:59;;;;;;;27.50;16.47;;;3.40;99.90;;;;;;5089838;28;20202;-67
2022/02/15 07:08:26;;;;;;;29.40;17.13;;;3.50;99.90;;;;;;5077520;28;20288;-64
2022/02/15 07:10:54;;;;;;;26.50;15.77;;;3.60;99.90;;;;;;5075668;28;20263;-71
2022/02/15 07:13:22;;;;;;;23.67;15.90;;;3.80;99.90;;;;;;5078863;28;20210;-71
2022/02/15 07:15:49;;;;;;;26.13;15.87;;;4.00;99.90;;;;;;5069070;28;20705;-70
2022/02/15 07:18:16;;;;;;;23.67;15.63;;;4.10;99.90;;;;;;5065794;28;20332;-64
2022/02/15 07:20:43;;;;;;;23.33;14.60;;;4.30;99.90;;;;;;5065403;28;20226;-65
2022/02/15 07:23:10;;;;;;;25.00;15.80;;;4.60;99.90;;;;;;5078505;28;20260;-65
2022/02/15 07:25:38;;;;;;;25.07;15.33;;;4.80;99.90;;;;;;5074453;28;20197;-65
2022/02/15 07:28:05;;;;;;;27.10;15.17;;;4.90;99.90;;;;;;5075535;28;20592;-65
2022/02/15 07:30:35;;;;;;;22.73;15.13;;;4.90;99.90;;;;;;5076417;28;20281;-70
2022/02/15 07:33:03;;;;;;;25.23;15.17;;;5.00;99.90;;;;;;5074279;28;20205;-70
2022/02/15 07:35:30;;;;;;;26.17;15.57;;;5.10;99.90;;;;;;5072658;28;20737;-71
2022/02/15 07:37:57;;;;;;;30.93;18.30;;;5.10;99.90;;;;;;5073323;28;20260;-70
2022/02/15 07:40:24;;;;;;;24.73;14.77;;;5.20;99.90;;;;;;5073560;28;20237;-69
2022/02/15 07:42:51;;;;;;;23.70;15.33;;;5.30;99.90;;;;;;5070150;28;20829;-69
2022/02/15 07:45:19;;;;;;;24.07;15.70;;;5.40;99.90;;;;;;5073792;28;20197;-70
2022/02/15 07:47:48;;;;;;;25.20;14.93;;;5.50;99.90;;;;;;5072267;28;20262;-69
2022/02/15 07:50:16;;;;;;;26.03;15.43;;;5.60;99.90;;;;;;5070312;28;20673;-71
2022/02/15 07:52:44;;;;;;;25.00;15.50;;;5.80;99.90;;;;;;5071378;28;20387;-72
2022/02/15 07:55:12;;;;;;;26.73;14.97;;;5.90;99.90;;;;;;5069066;28;20221;-73
2022/02/15 07:57:41;;;;;;;23.77;14.87;;;6.00;99.90;;;;;;5074550;28;20227;-68
2022/02/15 08:00:09;;;;;;;26.00;15.80;;;6.10;99.90;;;;;;5058841;28;20213;-70
2022/02/15 08:02:36;;;;;;;24.13;14.13;;;6.20;99.90;;;;;;5071824;28;20266;-67
2022/02/15 08:05:04;;;;;;;25.47;15.50;;;6.30;99.90;;;;;;5072232;28;20647;-69
2022/02/15 08:07:32;;;;;;;22.40;15.20;;;6.30;99.90;;;;;;5073292;28;20242;-70
2022/02/15 08:10:02;;;;;;;27.63;16.10;;;6.20;99.90;;;;;;5077755;28;21439;-72
2022/02/15 08:12:29;;;;;;;28.37;15.73;;;6.30;99.90;;;;;;5073571;28;20243;-72
2022/02/15 08:14:56;;;;;;;22.30;13.70;;;6.40;99.90;;;;;;5073125;28;20256;-72
2022/02/15 08:17:23;;;;;;;26.57;16.00;;;6.50;99.90;;;;;;5067740;28;20247;-70
2022/02/15 08:19:50;;;;;;;24.67;15.17;;;6.50;99.90;;;;;;5067472;28;20216;-71
2022/02/15 08:22:20;;;;;;;28.73;15.50;;;6.60;99.90;;;;;;5071589;28;20706;-69
2022/02/15 08:24:47;;;;;;;24.60;15.00;;;6.70;99.90;;;;;;5071322;28;20748;-70
2022/02/15 08:27:14;;;;;;;24.73;15.43;;;6.80;99.90;;;;;;5077086;28;20232;-70
2022/02/15 08:29:41;;;;;;;25.33;15.73;;;6.90;99.90;;;;;;5071198;28;20240;-69
2022/02/15 08:32:08;;;;;;;26.67;15.87;;;7.00;99.90;;;;;;5071541;28;20852;-70
2022/02/15 08:34:35;;;;;;;29.20;16.63;;;7.00;99.90;;;;;;5069499;28;20698;-70
2022/02/15 08:37:03;;;;;;;31.03;15.80;;;7.10;99.90;;;;;;5064998;28;20320;-70
2022/02/15 08:39:31;;;;;;;27.87;16.57;;;7.30;99.90;;;;;;5074833;28;20205;-69
2022/02/15 08:42:04;;;;;;;26.37;15.70;;;7.60;99.90;;;;;;5069995;28;20741;-69
2022/02/15 08:44:32;;;;;;;24.53;15.33;;;8.00;99.90;;;;;;5071699;28;20701;-70
2022/02/15 08:46:59;;;;;;;28.10;16.03;;;8.20;99.90;;;;;;5090072;28;20216;-70
2022/02/15 08:49:27;;;;;;;23.57;15.23;;;8.40;99.90;;;;;;5091682;28;20209;-71
2022/02/15 08:51:54;;;;;;;26.40;15.93;;;8.40;99.90;;;;;;5092158;28;20215;-69
2022/02/15 08:54:21;;;;;;;24.40;15.63;;;8.30;99.40;;;;;;5078295;28;20198;-69
2022/02/15 08:56:50;;;;;;;25.83;15.57;;;8.30;99.40;;;;;;5088923;28;20219;-71
2022/02/15 08:59:17;;;;;;;28.40;15.37;;;8.30;99.20;;;;;;5081360;28;20209;-70
2022/02/15 09:01:43;;;;;;;23.60;15.30;;;8.40;98.90;;;;;;5074224;28;20319;-71
2022/02/15 09:04:10;;;;;;;24.03;15.57;;;8.40;98.70;;;;;;5071675;28;20201;-69
2022/02/15 09:06:40;;;;;;;24.67;14.67;;;8.40;98.80;;;;;;5066104;28;20233;-69
2022/02/15 09:09:07;;;;;;;23.17;14.23;;;8.40;98.40;;;;;;5071249;28;20631;-70
2022/02/15 09:11:34;;;;;;;24.40;14.80;;;8.30;97.80;;;;;;5073318;28;20331;-69
2022/02/15 09:14:03;;;;;;;21.47;14.33;;;8.10;97.80;;;;;;5067591;28;20288;-70
2022/02/15 09:16:30;;;;;;;24.33;14.87;;;8.10;98.00;;;;;;5065233;28;20239;-70
2022/02/15 09:18:57;;;;;;;25.30;15.33;;;7.80;98.00;;;;;;5073418;28;20220;-70
2022/02/15 09:21:24;;;;;;;24.33;15.80;;;7.80;98.70;;;;;;5066152;28;20225;-69
2022/02/15 09:23:51;;;;;;;23.90;16.33;;;7.60;99.20;;;;;;5073640;28;20296;-70
2022/02/15 09:26:18;;;;;;;22.83;14.77;;;7.60;99.40;;;;;;5073017;28;20583;-69
2022/02/15 09:28:45;;;;;;;24.97;15.90;;;7.50;99.80;;;;;;5072743;28;20205;-71
2022/02/15 09:31:14;;;;;;;24.00;15.30;;;7.50;99.90;;;;;;5072314;28;20236;-71
2022/02/15 09:33:41;;;;;;;26.10;16.27;;;7.60;99.90;;;;;;5071763;28;20224;-71
2022/02/15 09:36:08;;;;;;;25.23;15.70;;;8.00;99.90;;;;;;5063499;28;20221;-70
2022/02/15 09:38:35;;;;;;;23.80;15.63;;;8.70;99.90;;;;;;5062829;28;20275;-71
2022/02/15 09:41:07;;;;;;;25.50;15.23;;;10.30;99.90;;;;;;5072198;28;20741;-72
2022/02/15 09:43:35;;;;;;;21.53;14.53;;;11.90;98.70;;;;;;5069417;28;20264;-71
2022/02/15 09:46:03;;;;;;;24.03;15.33;;;13.90;91.00;;;;;;5073634;28;20717;-71
2022/02/15 09:48:31;;;;;;;20.97;15.17;;;14.50;78.70;;;;;;5070040;28;20218;-71
2022/02/15 09:50:59;;;;;;;23.27;15.63;;;14.70;72.90;;;;;;5082182;28;20204;-73
2022/02/15 09:53:26;;;;;;;23.73;15.57;;;14.20;68.60;;;;;;5074421;28;20217;-71
2022/02/15 09:55:53;;;;;;;25.67;16.00;;;13.40;67.30;;;;;;5070073;28;20250;-70
2022/02/15 09:58:20;;;;;;;26.70;16.77;;;12.50;68.70;;;;;;5075173;28;20296;-71
2022/02/15 10:00:47;;;;;;;25.83;16.57;;;11.80;71.00;;;;;;5077055;28;20568;-72
2022/02/15 10:03:15;;;;;;;23.60;15.10;;;11.20;73.00;;;;;;5079375;28;20209;-71
2022/02/15 10:05:48;;;;;;;25.57;16.00;;;10.50;75.20;;;;;;5075730;28;20262;-71
2022/02/15 10:08:15;;;;;;;24.73;14.90;;;10.10;77.90;;;;;;5071437;28;20197;-71
2022/02/15 10:10:41;;;;;;;24.97;15.47;;;9.70;80.90;;;;;;5078911;28;20250;-70
2022/02/15 10:13:10;;;;;;;22.87;15.17;;;9.50;83.00;;;;;;5074567;28;20244;-72
2022/02/15 10:15:38;;;;;;;23.13;15.27;;;9.20;85.10;;;;;;5071644;28;20617;-71
2022/02/15 10:18:06;;;;;;;27.73;16.13;;;9.00;86.50;;;;;;5078606;28;20587;-70
2022/02/15 10:20:34;;;;;;;23.43;15.77;;;8.90;88.10;;;;;;5081269;28;20239;-71
2022/02/15 10:23:20;;;;;;;22.07;14.90;;;8.80;90.00;;;;;;5074361;28;20201;-71
2022/02/15 10:25:48;;;;;;;25.30;16.60;;;8.70;90.10;;;;;;5072983;28;20237;-73
2022/02/15 10:28:16;;;;;;;23.73;15.43;;;8.60;90.70;;;;;;5072573;28;20205;-71
2022/02/15 10:30:44;;;;;;;23.67;15.00;;;8.50;91.20;;;;;;5079335;28;20296;-72
2022/02/15 10:33:11;;;;;;;22.73;15.70;;;8.50;91.70;;;;;;5077887;28;20214;-71
2022/02/15 10:35:40;;;;;;;26.87;15.87;;;8.40;92.30;;;;;;5082247;28;20221;-71
2022/02/15 10:38:09;;;;;;;25.57;14.87;;;8.40;92.50;;;;;;5076284;28;20237;-70
2022/02/15 10:40:37;;;;;;;25.37;15.60;;;8.30;92.70;;;;;;5080480;28;20230;-70
2022/02/15 10:43:04;;;;;;;25.03;15.27;;;8.30;93.00;;;;;;5078920;28;20216;-70
2022/02/15 10:45:31;;;;;;;23.50;15.63;;;8.20;93.30;;;;;;5074725;28;20193;-70
2022/02/15 10:48:06;;;;;;;23.97;14.73;;;8.10;94.10;;;;;;5071706;28;20654;-69
2022/02/15 10:50:36;;;;;;;21.07;13.77;;;8.10;94.80;;;;;;5074970;28;20268;-69
2022/02/15 10:53:03;;;;;;;26.67;14.77;;;8.00;95.50;;;;;;5070201;28;20209;-69
2022/02/15 10:55:31;;;;;;;28.60;15.57;;;8.10;96.30;;;;;;5066379;28;20304;-69
2022/02/15 10:58:02;;;;;;;22.87;15.43;;;8.20;96.90;;;;;;5077861;28;20304;-70
2022/02/15 11:00:30;;;;;;;25.20;15.20;;;8.50;97.40;;;;;;5069656;28;20205;-70
2022/02/15 11:02:57;;;;;;;23.67;15.70;;;8.80;97.00;;;;;;5071080;28;20573;-69
2022/02/15 11:05:25;;;;;;;22.27;14.70;;;9.00;96.40;;;;;;5071678;28;20204;-71
2022/02/15 11:07:52;;;;;;;23.40;14.83;;;9.10;95.60;;;;;;5066582;28;20659;-70
2022/02/15 11:10:21;;;;;;;29.87;15.53;;;9.30;95.90;;;;;;5079058;28;20209;-70
2022/02/15 11:12:50;;;;;;;23.00;15.07;;;9.80;95.10;;;;;;5071993;28;20296;-70
2022/02/15 11:15:23;;;;;;;24.43;15.10;;;10.60;99.90;;;;;;5071662;28;20308;-70
2022/02/15 11:17:51;;;;;;;22.73;14.63;;;13.00;97.80;;;;;;5075141;28;20209;-70
2022/02/15 11:20:20;;;;;;;21.13;13.50;;;16.30;90.50;;;;;;5074463;28;20332;-70
2022/02/15 11:22:51;;;;;;;21.17;14.03;;;19.20;69.70;;;;;;5073865;28;20225;-72
2022/02/15 11:25:29;;;;;;;19.17;13.07;;;22.10;58.60;;;;;;5077278;28;20201;-70
2022/02/15 11:27:56;;;;;;;20.48;13.82;;;24.80;47.30;;;;;;5071323;28;20201;-71
2022/02/15 11:30:28;;;;;;;20.55;14.60;;;25.00;43.20;;;;;;5074212;28;20752;-71
2022/02/15 11:33:05;;;;;;;22.17;15.07;;;23.90;41.90;;;;;;5070750;28;20205;-71
2022/02/15 11:35:34;;;;;;;23.05;16.02;;;23.90;43.90;;;;;;5073895;28;20280;-70
2022/02/15 11:38:09;;;;;;;19.73;15.40;;;25.80;42.40;;;;;;5070980;28;20271;-71
2022/02/15 11:40:36;;;;;;;21.13;15.40;;;28.50;38.80;;;;;;5078940;28;20212;-71
2022/02/15 11:43:05;;;;;;;18.20;15.65;;;30.70;34.30;;;;;;5072068;28;20301;-71
2022/02/15 11:45:38;;;;;;;20.02;15.90;;;31.60;31.40;;;;;;5069957;28;20670;-72
2022/02/15 11:48:06;;;;;;;20.27;14.82;;;32.40;30.70;;;;;;5067754;28;20211;-71
2022/02/15 11:50:42;;;;;;;21.17;14.82;;;32.50;29.00;;;;;;5073764;28;20205;-71
2022/02/15 11:53:09;;;;;;;18.90;15.10;;;31.10;28.30;;;;;;5069155;28;21760;-71
2022/02/15 11:55:36;;;;;;;21.80;15.65;;;28.90;29.40;;;;;;5071438;28;20225;-71
2022/02/15 11:58:03;;;;;;;20.15;15.95;;;26.80;30.80;;;;;;5065641;28;20581;-71
2022/02/15 12:00:35;;;;;;;21.17;15.93;;;24.80;32.80;;;;;;5074616;28;20201;-71
2022/02/15 12:03:03;;;;;;;20.15;15.55;;;22.80;34.50;;;;;;5065383;28;20215;-70
2022/02/15 12:05:31;;;;;;;22.20;15.40;;;21.20;36.50;;;;;;5078500;28;20583;-70
2022/02/15 12:07:59;;;;;;;18.17;14.60;;;19.80;38.10;;;;;;5079256;28;20217;-69
2022/02/15 12:10:35;;;;;;;22.58;15.85;;;18.50;39.70;;;;;;5072540;28;20209;-73
2022/02/15 12:13:01;;;;;;;22.27;14.93;;;17.40;41.50;;;;;;5072741;28;20205;-70
2022/02/15 12:15:31;;;;;;;26.13;18.67;;;16.50;42.80;;;;;;5074695;28;20299;-71
2022/02/15 12:17:59;;;;;;;22.40;15.07;;;15.70;44.10;;;;;;5069874;28;20224;-71
2022/02/15 12:20:27;;;;;;;21.47;14.33;;;15.00;45.40;;;;;;5069389;28;20771;-71
2022/02/15 12:22:55;;;;;;;20.33;14.87;;;14.20;46.90;;;;;;5072808;28;20225;-70
2022/02/15 12:25:23;;;;;;;23.23;15.00;;;13.60;48.50;;;;;;5073572;28;20556;-71
2022/02/15 12:27:50;;;;;;;23.67;14.80;;;13.00;49.60;;;;;;5073561;28;20220;-73
2022/02/15 12:30:18;;;;;;;21.67;15.43;;;12.60;51.00;;;;;;5072467;28;20210;-72
2022/02/15 12:32:47;;;;;;;25.50;14.93;;;12.20;51.90;;;;;;5072641;28;20229;-70
2022/02/15 12:35:24;;;;;;;28.37;15.53;;;11.90;52.90;;;;;;5070562;28;20262;-71
2022/02/15 12:37:51;;;;;;;24.50;15.07;;;11.60;53.70;;;;;;5072265;28;20232;-72
2022/02/15 12:40:18;;;;;;;24.20;14.77;;;11.20;54.60;;;;;;5072958;28;20205;-73
2022/02/15 12:42:45;;;;;;;23.07;15.13;;;11.00;55.60;;;;;;5069495;28;20232;-71
2022/02/15 12:45:12;;;;;;;27.07;15.93;;;10.70;56.40;;;;;;5070591;28;20213;-69